Terminal Aerodrome Forecast
Issued by NWS

Home | Current Version | Previous Version | Text Only | Print | Product List | Glossary On
Versions: 1 2 3 4 5 6 7 8 9 10 11 12 13
205
FTUS42 TJSJ 211733
TAFJBQ
TAF
TJBQ 211733Z 2118/2218 06008KT P6SM VCSH FEW030 SCT070
     FM212300 06004KT P6SM VCSH SCT028 SCT070
     FM221500 07008G16KT P6SM SCT026 SCT070=

USA.gov is the U.S. government's official web portal to all federal, state and local government web resources and services.